Decoded Metar for KVNW ( in ) (IATA:) | Meteo·Mobile Aviation Weather
aviador You're here:

KVNW Decoded Metar

in
Report Time2018-12-17 15:35:00
UTC Time2018-12-17 15:27:53
Flight Rules vfr VFR
Wind320° at 07 kt
W.Decomp.*RWY 36: 5.4 kt HW 4.5 kt LCW
RWY 27: 4.5 kt HW 5.4 kt RCW
W.Rank320° ranks 21
Current wind is below 320° avg. (8.5)
Visibility9999 m
Phenomena:N/A
Clouds:N/A
Expected CloudBase > 1,200 ft AGL from Temp-Dew spread
CeilingNone
Temp02°C
Dew Point-1°C (81% RH)
AAT-2.6°C
QNH1020 hPa
Raw Report
METAR KVNW 171535Z AUTO 32007KT 10SM CLR 02/M01 A3013 RMK AO2=

Extra information for KVNW:More info

Social comments